createdAt,value
2023-02-22T00:00:48.341Z,41.80
2023-02-22T00:03:18.030Z,36.70
2023-02-22T00:05:47.848Z,39.40
2023-02-22T00:08:15.748Z,38.80
2023-02-22T00:10:43.186Z,43.70
2023-02-22T00:13:13.573Z,41.80
2023-02-22T00:15:41.631Z,43.50
2023-02-22T00:18:10.638Z,42.90
2023-02-22T00:20:40.906Z,41.20
2023-02-22T00:23:10.475Z,43.20
2023-02-22T00:25:37.183Z,38.30
2023-02-22T00:28:05.116Z,42.80
2023-02-22T00:30:33.772Z,42.30
2023-02-22T00:33:00.992Z,40.50
2023-02-22T00:35:30.128Z,40.80
2023-02-22T00:38:02.086Z,37.70
2023-02-22T00:40:34.560Z,41.10
2023-02-22T00:43:04.254Z,41.90
2023-02-22T00:45:33.629Z,40.50
2023-02-22T00:48:01.960Z,42.00
2023-02-22T00:50:30.509Z,38.50
2023-02-22T00:52:58.824Z,41.40
2023-02-22T00:55:28.508Z,42.10
2023-02-22T00:57:56.302Z,35.10
2023-02-22T01:00:31.434Z,40.30
2023-02-22T01:02:58.091Z,40.40
2023-02-22T01:05:28.360Z,39.10
2023-02-22T01:07:56.582Z,44.10
2023-02-22T01:10:27.542Z,38.60
2023-02-22T01:12:54.719Z,40.30
2023-02-22T01:15:23.565Z,41.60
2023-02-22T01:17:53.753Z,39.80
2023-02-22T01:20:23.016Z,38.00
2023-02-22T01:22:51.489Z,42.30
2023-02-22T01:25:21.287Z,41.00
2023-02-22T01:27:50.288Z,39.50
2023-02-22T01:30:22.227Z,36.10
2023-02-22T01:32:51.590Z,39.40
2023-02-22T01:35:24.378Z,42.00
2023-02-22T01:37:51.286Z,42.50
2023-02-22T01:40:28.520Z,42.50
2023-02-22T01:42:58.786Z,42.80
2023-02-22T01:45:34.462Z,42.40
2023-02-22T01:48:06.194Z,41.50
2023-02-22T01:50:37.315Z,36.20
2023-02-22T01:53:05.488Z,42.90
2023-02-22T01:55:35.542Z,38.00
2023-02-22T01:58:05.156Z,36.50
2023-02-22T02:00:32.506Z,34.30
2023-02-22T02:03:08.361Z,42.70
2023-02-22T02:05:39.246Z,43.20
2023-02-22T02:08:17.323Z,44.10
2023-02-22T02:13:11.344Z,41.70
2023-02-22T02:15:38.105Z,41.00
2023-02-22T02:18:07.912Z,40.70
2023-02-22T02:21:16.195Z,41.60
2023-02-22T02:24:09.217Z,37.60
2023-02-22T02:27:01.010Z,37.20
2023-02-22T02:30:19.388Z,33.60
2023-02-22T02:33:05.339Z,43.10
2023-02-22T02:35:39.372Z,44.10
2023-02-22T02:38:22.225Z,42.80
2023-02-22T02:41:18.809Z,36.80
2023-02-22T02:44:10.318Z,42.50
2023-02-22T02:46:46.941Z,44.80
2023-02-22T02:49:20.552Z,43.10
2023-02-22T02:51:52.438Z,44.00
2023-02-22T02:54:22.487Z,39.90
2023-02-22T02:56:52.332Z,41.10
2023-02-22T02:59:33.501Z,40.20
2023-02-22T03:02:26.538Z,37.30
2023-02-22T03:05:25.955Z,40.50
2023-02-22T03:08:00.699Z,38.20
2023-02-22T03:10:33.345Z,35.40
2023-02-22T03:13:14.618Z,41.50
2023-02-22T03:15:51.520Z,42.50
2023-02-22T03:18:29.171Z,44.00
2023-02-22T03:21:24.229Z,44.70
2023-02-22T03:24:21.042Z,42.80
2023-02-22T03:27:21.842Z,40.80
2023-02-22T03:29:54.219Z,41.10
2023-02-22T03:32:27.864Z,39.90
2023-02-22T03:35:02.355Z,37.20
2023-02-22T03:37:34.221Z,41.70
2023-02-22T03:40:14.106Z,41.30
2023-02-22T03:42:51.215Z,41.50
2023-02-22T03:45:24.416Z,41.60
2023-02-22T03:48:01.833Z,43.00
2023-02-22T03:50:35.816Z,40.90
2023-02-22T03:53:04.462Z,45.20
2023-02-22T03:55:32.966Z,44.20
2023-02-22T03:58:05.049Z,43.90
2023-02-22T04:00:33.940Z,38.90
2023-02-22T04:03:01.852Z,37.60
2023-02-22T04:05:28.568Z,37.30
2023-02-22T04:07:57.735Z,40.50
2023-02-22T04:10:25.431Z,38.60
2023-02-22T04:12:55.645Z,39.30
2023-02-22T04:15:24.119Z,41.40
2023-02-22T04:17:55.133Z,41.00
2023-02-22T04:20:25.578Z,43.40
2023-02-22T04:22:58.002Z,41.70
2023-02-22T04:25:24.875Z,40.30
2023-02-22T04:27:52.783Z,43.00
2023-02-22T04:30:24.613Z,37.60
2023-02-22T04:32:51.391Z,42.00
2023-02-22T04:35:20.998Z,39.10
2023-02-22T04:37:47.858Z,41.80
2023-02-22T04:40:18.799Z,42.30
2023-02-22T04:42:47.053Z,38.30
2023-02-22T04:45:14.212Z,37.70
2023-02-22T04:47:41.058Z,39.60
2023-02-22T04:50:11.178Z,40.00
2023-02-22T04:52:37.876Z,39.80
2023-02-22T04:55:07.591Z,39.10
2023-02-22T04:57:35.813Z,40.60
2023-02-22T05:00:02.572Z,35.80
2023-02-22T05:02:31.532Z,33.60
2023-02-22T05:04:58.150Z,40.10
2023-02-22T05:07:24.930Z,40.30
2023-02-22T05:09:51.642Z,39.80
2023-02-22T05:12:18.248Z,39.10
2023-02-22T05:14:45.050Z,40.60
2023-02-22T05:17:11.703Z,37.50
2023-02-22T05:19:38.724Z,37.10
2023-02-22T05:22:05.850Z,36.70
2023-02-22T05:24:32.742Z,39.90
2023-02-22T05:26:59.426Z,41.60
2023-02-22T05:29:26.430Z,39.80
2023-02-22T05:31:53.181Z,42.80
2023-02-22T05:34:19.903Z,41.80
2023-02-22T05:36:46.623Z,39.60
2023-02-22T05:39:13.335Z,42.30
2023-02-22T05:41:39.951Z,41.70
2023-02-22T05:44:06.620Z,39.80
2023-02-22T05:46:33.312Z,41.40
2023-02-22T05:49:00.173Z,41.30
2023-02-22T05:51:26.768Z,43.80
2023-02-22T05:53:53.402Z,40.30
2023-02-22T05:56:24.686Z,40.80
2023-02-22T05:58:51.660Z,41.30
2023-02-22T06:01:18.995Z,43.50
2023-02-22T06:03:49.998Z,43.00
2023-02-22T06:06:19.223Z,43.10
2023-02-22T06:08:46.945Z,45.00
2023-02-22T06:11:13.869Z,42.60
2023-02-22T06:13:41.408Z,39.60
2023-02-22T06:16:08.506Z,40.30
2023-02-22T06:18:35.320Z,42.80
2023-02-22T06:21:02.234Z,41.40
2023-02-22T06:23:28.968Z,40.00
2023-02-22T06:25:55.645Z,42.30
2023-02-22T06:28:23.831Z,40.60
2023-02-22T06:30:50.665Z,43.40
2023-02-22T06:33:17.248Z,42.10
2023-02-22T06:35:45.262Z,41.50
2023-02-22T06:38:11.848Z,42.00
2023-02-22T06:40:38.422Z,40.10
2023-02-22T06:43:05.073Z,42.40
2023-02-22T06:45:31.803Z,42.50
2023-02-22T06:47:58.460Z,44.40
2023-02-22T06:50:28.968Z,44.40
2023-02-22T06:52:56.757Z,41.60
2023-02-22T06:55:26.202Z,43.80
2023-02-22T06:57:53.410Z,43.70
2023-02-22T07:00:24.541Z,45.40
2023-02-22T07:02:51.946Z,42.80
2023-02-22T07:05:23.624Z,45.50
2023-02-22T07:07:55.436Z,44.30
2023-02-22T07:10:27.822Z,44.50
2023-02-22T07:12:55.034Z,42.30
2023-02-22T07:15:24.156Z,40.20
2023-02-22T07:17:51.932Z,45.00
2023-02-22T07:20:20.791Z,42.70
2023-02-22T07:22:48.405Z,41.80
2023-02-22T07:25:15.260Z,44.30
2023-02-22T07:27:43.116Z,44.40
2023-02-22T07:30:18.923Z,47.40
2023-02-22T07:32:47.341Z,42.40
2023-02-22T07:35:27.338Z,45.70
2023-02-22T07:37:55.945Z,42.90
2023-02-22T07:40:24.379Z,44.50
2023-02-22T07:43:21.891Z,43.70
2023-02-22T07:45:50.302Z,42.40
2023-02-22T07:48:18.312Z,40.70
2023-02-22T07:50:45.679Z,46.40
2023-02-22T07:53:15.398Z,41.90
2023-02-22T07:55:45.160Z,44.20
2023-02-22T07:58:15.861Z,40.50
2023-02-22T08:00:47.346Z,43.60
2023-02-22T08:03:16.394Z,43.20
2023-02-22T08:05:46.993Z,48.10
2023-02-22T08:08:19.748Z,41.70
2023-02-22T08:10:47.427Z,46.90
2023-02-22T08:13:14.927Z,45.10
2023-02-22T08:15:44.384Z,49.60
2023-02-22T08:18:18.496Z,47.30
2023-02-22T08:20:46.993Z,38.60
2023-02-22T08:23:15.475Z,40.40
2023-02-22T08:25:42.249Z,42.20
2023-02-22T08:28:15.366Z,43.90
2023-02-22T08:30:43.894Z,47.10
2023-02-22T08:33:14.567Z,38.60
2023-02-22T08:35:41.879Z,43.70
2023-02-22T08:38:15.380Z,44.80
2023-02-22T08:40:42.124Z,40.10
2023-02-22T08:43:08.748Z,36.80
2023-02-22T08:45:35.554Z,31.80
2023-02-22T08:48:02.737Z,32.60
2023-02-22T08:50:33.729Z,31.50
2023-02-22T08:53:03.069Z,33.80
2023-02-22T08:55:32.726Z,44.20
2023-02-22T08:58:02.962Z,50.50
2023-02-22T09:00:35.396Z,45.70
2023-02-22T09:03:15.307Z,48.70
2023-02-22T09:05:43.449Z,42.40
2023-02-22T09:08:10.580Z,49.60
2023-02-22T09:10:37.595Z,48.30
2023-02-22T09:13:04.948Z,33.80
2023-02-22T09:15:33.042Z,38.70
2023-02-22T09:18:00.164Z,43.40
2023-02-22T09:20:28.123Z,40.60
2023-02-22T09:22:55.369Z,33.10
2023-02-22T09:25:23.410Z,41.80
2023-02-22T09:27:54.537Z,44.60
2023-02-22T09:30:33.514Z,38.90
2023-02-22T09:33:10.173Z,30.30
2023-02-22T09:35:37.950Z,31.20
2023-02-22T09:38:08.479Z,31.90
2023-02-22T09:40:45.164Z,28.00
2023-02-22T09:43:50.754Z,32.00
2023-02-22T09:46:34.746Z,28.00
2023-02-22T09:51:58.761Z,29.10
2023-02-22T09:54:45.413Z,20.50
2023-02-22T09:57:32.056Z,33.50
2023-02-22T10:00:15.555Z,35.20
2023-02-22T10:03:08.293Z,25.60
2023-02-22T10:05:41.958Z,33.30
2023-02-22T10:08:14.718Z,31.60
2023-02-22T10:10:46.200Z,28.00
2023-02-22T10:13:31.609Z,23.60
2023-02-22T10:16:25.711Z,25.30
2023-02-22T10:19:08.481Z,30.00
2023-02-22T10:21:47.514Z,37.10
2023-02-22T10:24:32.620Z,35.10
2023-02-22T10:27:00.972Z,31.40
2023-02-22T10:29:53.259Z,24.20
2023-02-22T10:32:29.185Z,29.80
2023-02-22T10:35:03.369Z,24.20
2023-02-22T10:37:32.945Z,34.20
2023-02-22T10:40:23.093Z,33.30
2023-02-22T10:42:50.332Z,36.90
2023-02-22T10:45:25.856Z,26.00
2023-02-22T10:47:56.266Z,26.90
2023-02-22T10:50:23.017Z,30.90
2023-02-22T10:52:49.949Z,29.30
2023-02-22T10:55:17.329Z,32.30
2023-02-22T10:57:50.865Z,27.80
2023-02-22T11:00:30.503Z,35.20
2023-02-22T11:02:58.322Z,22.60
2023-02-22T11:05:38.665Z,25.90
2023-02-22T11:08:24.707Z,24.40
2023-02-22T11:11:01.962Z,26.50
2023-02-22T11:13:38.068Z,24.60
2023-02-22T11:16:20.158Z,26.40
2023-02-22T11:18:49.677Z,32.10
2023-02-22T11:21:23.102Z,30.30
2023-02-22T11:24:01.130Z,29.80
2023-02-22T11:28:56.669Z,32.30
2023-02-22T11:31:27.856Z,32.30
2023-02-22T11:36:41.068Z,31.40
2023-02-22T11:39:27.055Z,19.00
2023-02-22T11:41:56.703Z,31.90
2023-02-22T11:44:32.592Z,21.80
2023-02-22T11:47:07.215Z,32.30
2023-02-22T11:49:38.360Z,31.10
2023-02-22T11:52:05.074Z,31.90
2023-02-22T11:54:52.816Z,31.10
2023-02-22T11:57:31.724Z,27.60
2023-02-22T12:00:15.494Z,27.10
2023-02-22T12:02:57.340Z,21.00
2023-02-22T12:05:59.844Z,30.60
2023-02-22T12:08:39.117Z,37.10
2023-02-22T12:11:20.677Z,28.40
2023-02-22T12:14:35.989Z,31.90
2023-02-22T12:17:09.045Z,32.00
2023-02-22T12:19:50.467Z,26.80
2023-02-22T12:22:25.720Z,34.20
2023-02-22T12:25:09.696Z,37.50
2023-02-22T12:27:43.595Z,32.30
2023-02-22T12:30:29.335Z,23.80
2023-02-22T12:33:00.203Z,34.40
2023-02-22T12:35:30.200Z,29.30
2023-02-22T12:38:04.747Z,28.60
2023-02-22T12:40:47.630Z,33.80
2023-02-22T12:43:23.403Z,32.30
2023-02-22T12:46:27.226Z,36.00
2023-02-22T12:49:20.934Z,35.80
2023-02-22T12:52:21.983Z,29.70
2023-02-22T12:54:59.534Z,31.40
2023-02-22T12:57:42.428Z,37.90
2023-02-22T13:00:23.320Z,37.50
2023-02-22T13:03:07.046Z,31.00
2023-02-22T13:05:43.438Z,28.60
2023-02-22T13:08:34.133Z,34.50
2023-02-22T13:11:04.769Z,36.90
2023-02-22T13:13:47.389Z,22.80
2023-02-22T13:16:33.723Z,39.10
2023-02-22T13:19:38.598Z,24.10
2023-02-22T13:22:21.134Z,30.80
2023-02-22T13:25:00.084Z,33.30
2023-02-22T13:27:32.767Z,35.00
2023-02-22T13:30:01.880Z,30.20
2023-02-22T13:32:48.024Z,26.50
2023-02-22T13:35:42.531Z,33.90
2023-02-22T13:38:28.502Z,27.50
2023-02-22T13:41:10.489Z,28.70
2023-02-22T13:43:52.317Z,33.00
2023-02-22T13:46:40.307Z,33.60
2023-02-22T13:49:26.030Z,33.30
2023-02-22T13:51:59.014Z,25.80
2023-02-22T13:54:37.962Z,27.60
2023-02-22T13:57:17.157Z,31.00
2023-02-22T13:59:47.444Z,34.10
2023-02-22T14:02:52.757Z,29.80
2023-02-22T14:05:49.912Z,26.80
2023-02-22T14:08:19.801Z,29.30
2023-02-22T14:10:59.283Z,33.30
2023-02-22T14:13:30.861Z,28.90
2023-02-22T14:16:00.605Z,36.30
2023-02-22T14:18:42.970Z,33.20
2023-02-22T14:21:11.962Z,35.10
2023-02-22T14:23:41.479Z,33.90
2023-02-22T14:26:18.892Z,36.40
2023-02-22T14:28:50.981Z,27.60
2023-02-22T14:31:34.944Z,29.80
2023-02-22T14:34:08.354Z,27.20
2023-02-22T14:36:58.457Z,31.30
2023-02-22T14:39:43.650Z,35.00
2023-02-22T14:42:17.821Z,28.50
2023-02-22T14:45:12.639Z,26.60
2023-02-22T14:48:16.528Z,27.00
2023-02-22T14:51:21.453Z,31.80
2023-02-22T14:53:52.953Z,20.90
2023-02-22T14:56:23.603Z,31.00
2023-02-22T14:59:07.915Z,35.40
2023-02-22T15:01:50.857Z,27.20
2023-02-22T15:04:28.959Z,30.60
2023-02-22T15:07:00.955Z,32.00
2023-02-22T15:09:37.205Z,26.90
2023-02-22T15:12:03.864Z,28.40
2023-02-22T15:14:37.723Z,35.10
2023-02-22T15:17:10.327Z,32.10
2023-02-22T15:19:40.223Z,29.70
2023-02-22T15:22:20.820Z,34.60
2023-02-22T15:24:58.911Z,32.00
2023-02-22T15:27:26.243Z,31.50
2023-02-22T15:30:01.238Z,22.50
2023-02-22T15:32:50.026Z,34.90
2023-02-22T15:35:29.846Z,30.50
2023-02-22T15:38:02.628Z,28.40
2023-02-22T15:40:33.319Z,33.70
2023-02-22T15:43:11.049Z,29.40
2023-02-22T15:45:43.297Z,27.20
2023-02-22T15:48:11.755Z,33.10
2023-02-22T15:50:39.245Z,31.40
2023-02-22T15:53:18.296Z,30.90
2023-02-22T15:55:49.842Z,32.00
2023-02-22T15:58:16.418Z,31.70
2023-02-22T16:00:46.923Z,31.60
2023-02-22T16:03:16.837Z,30.60
2023-02-22T16:05:56.828Z,30.80
2023-02-22T16:08:29.459Z,32.50
2023-02-22T16:11:04.068Z,29.30
2023-02-22T16:13:37.217Z,32.00
2023-02-22T16:16:22.534Z,28.90
2023-02-22T16:18:51.091Z,31.70
2023-02-22T16:21:23.713Z,33.50
2023-02-22T16:24:06.974Z,28.70
2023-02-22T16:26:41.470Z,31.30
2023-02-22T16:29:09.707Z,31.50
2023-02-22T16:31:39.732Z,32.20
2023-02-22T16:34:08.402Z,31.70
2023-02-22T16:36:40.057Z,32.80
2023-02-22T16:39:09.069Z,32.00
2023-02-22T16:41:35.975Z,31.30
2023-02-22T16:44:03.055Z,33.60
2023-02-22T16:46:29.879Z,34.30
2023-02-22T16:48:59.649Z,33.60
2023-02-22T16:51:28.657Z,34.30
2023-02-22T16:53:56.405Z,32.50
2023-02-22T16:56:30.836Z,34.60
2023-02-22T16:59:01.320Z,33.20
2023-02-22T17:01:28.071Z,36.00
2023-02-22T17:03:54.903Z,36.70
2023-02-22T17:06:21.717Z,36.80
2023-02-22T17:08:51.989Z,34.50
2023-02-22T17:11:19.204Z,34.70
2023-02-22T17:13:47.269Z,34.60
2023-02-22T17:16:15.464Z,34.90
2023-02-22T17:18:46.141Z,37.70
2023-02-22T17:21:13.012Z,43.20
2023-02-22T17:23:39.976Z,32.60
2023-02-22T17:26:06.550Z,35.00
2023-02-22T17:28:33.192Z,35.30
2023-02-22T17:31:01.988Z,38.00
2023-02-22T17:33:32.998Z,37.80
2023-02-22T17:36:04.940Z,39.10
2023-02-22T17:38:31.834Z,35.40
2023-02-22T17:41:03.563Z,36.60
2023-02-22T17:43:30.156Z,39.50
2023-02-22T17:45:57.329Z,37.60
2023-02-22T17:48:24.575Z,36.30
2023-02-22T17:50:52.235Z,35.60
2023-02-22T17:53:22.816Z,36.40
2023-02-22T17:55:50.473Z,36.90
2023-02-22T17:58:17.517Z,36.30
2023-02-22T18:00:50.045Z,36.90
2023-02-22T18:03:25.424Z,32.70
2023-02-22T18:05:57.596Z,33.40
2023-02-22T18:08:29.262Z,35.10
2023-02-22T18:11:02.180Z,36.40
2023-02-22T18:13:28.956Z,33.90
2023-02-22T18:16:05.081Z,33.50
2023-02-22T18:18:35.896Z,34.40
2023-02-22T18:21:03.836Z,35.50
2023-02-22T18:23:31.629Z,36.70
2023-02-22T18:26:10.564Z,37.60
2023-02-22T18:28:40.774Z,35.20
2023-02-22T18:31:15.967Z,36.80
2023-02-22T18:33:44.260Z,36.60
2023-02-22T18:36:15.578Z,35.40
2023-02-22T18:38:43.682Z,36.40
2023-02-22T18:41:16.074Z,39.00
2023-02-22T18:43:43.594Z,36.50
2023-02-22T18:46:14.544Z,37.70
2023-02-22T18:48:41.931Z,35.50
2023-02-22T18:51:13.891Z,34.50
2023-02-22T18:56:14.230Z,37.80
2023-02-22T18:58:43.347Z,37.80
2023-02-22T19:01:16.211Z,37.20
2023-02-22T19:03:43.105Z,37.40
2023-02-22T19:06:10.402Z,38.30
2023-02-22T19:08:42.336Z,35.70
2023-02-22T19:13:38.370Z,31.00
2023-02-22T19:16:07.431Z,37.50
2023-02-22T19:18:34.820Z,38.40
2023-02-22T19:21:04.289Z,34.60
2023-02-22T19:23:34.464Z,34.70
2023-02-22T19:26:03.954Z,36.40
2023-02-22T19:28:36.692Z,36.60
2023-02-22T19:31:11.644Z,36.40
2023-02-22T19:33:38.521Z,38.40
2023-02-22T19:36:05.533Z,38.40
2023-02-22T19:38:32.305Z,35.10
2023-02-22T19:40:58.921Z,37.90
2023-02-22T19:43:25.566Z,36.60
2023-02-22T19:45:52.186Z,34.20
2023-02-22T19:48:19.170Z,36.00
2023-02-22T19:50:49.552Z,36.20
2023-02-22T19:53:19.619Z,37.70
2023-02-22T19:55:46.195Z,35.80
2023-02-22T19:58:15.331Z,34.00
2023-02-22T20:00:42.103Z,37.40
2023-02-22T20:03:13.411Z,37.10
2023-02-22T20:05:41.527Z,40.20
2023-02-22T20:08:08.786Z,38.40
2023-02-22T20:10:35.627Z,35.50
2023-02-22T20:13:03.211Z,34.30
2023-02-22T20:15:30.099Z,36.90
2023-02-22T20:17:57.968Z,34.60
2023-02-22T20:20:25.749Z,36.10
2023-02-22T20:22:53.534Z,34.30
2023-02-22T20:25:20.530Z,33.20
2023-02-22T20:27:48.681Z,35.30
2023-02-22T20:30:18.266Z,36.80
2023-02-22T20:32:46.072Z,39.40
2023-02-22T20:35:13.603Z,38.80
2023-02-22T20:37:43.918Z,39.30
2023-02-22T20:40:11.091Z,38.60
2023-02-22T20:42:39.352Z,40.20
2023-02-22T20:45:11.902Z,39.40
2023-02-22T20:47:39.082Z,39.80
2023-02-22T20:50:07.387Z,37.90
2023-02-22T20:52:35.843Z,36.70
2023-02-22T20:55:04.402Z,38.20
2023-02-22T20:57:31.169Z,38.40
2023-02-22T20:59:57.832Z,36.60
2023-02-22T21:02:24.551Z,34.10
2023-02-22T21:04:57.753Z,36.80
2023-02-22T21:07:24.711Z,38.70
2023-02-22T21:09:53.002Z,37.80
2023-02-22T21:12:19.920Z,38.90
2023-02-22T21:14:47.584Z,36.70
2023-02-22T21:17:14.739Z,37.60
2023-02-22T21:19:42.299Z,37.10
2023-02-22T21:22:09.965Z,40.80
2023-02-22T21:24:37.846Z,39.20
2023-02-22T21:27:07.049Z,39.20
2023-02-22T21:29:35.478Z,34.30
2023-02-22T21:32:02.874Z,37.70
2023-02-22T21:34:29.902Z,34.00
2023-02-22T21:36:56.869Z,39.00
2023-02-22T21:39:28.610Z,39.90
2023-02-22T21:42:00.584Z,41.50
2023-02-22T21:44:28.237Z,40.30
2023-02-22T21:46:54.937Z,41.90
2023-02-22T21:49:25.133Z,37.10
2023-02-22T21:51:52.643Z,35.20
2023-02-22T21:54:20.151Z,38.60
2023-02-22T21:56:46.991Z,39.00
2023-02-22T21:59:18.905Z,38.30
2023-02-22T22:01:52.555Z,36.60
2023-02-22T22:04:22.474Z,41.40
2023-02-22T22:06:51.648Z,36.10
2023-02-22T22:09:19.907Z,37.60
2023-02-22T22:11:54.703Z,41.20
2023-02-22T22:14:23.580Z,38.10
2023-02-22T22:16:52.644Z,40.30
2023-02-22T22:19:20.503Z,39.10
2023-02-22T22:21:48.839Z,34.20
2023-02-22T22:24:16.068Z,34.70
2023-02-22T22:26:44.079Z,36.70
2023-02-22T22:29:11.626Z,34.50
2023-02-22T22:31:38.865Z,32.70
2023-02-22T22:34:06.178Z,38.00
2023-02-22T22:36:34.493Z,35.20
2023-02-22T22:39:01.237Z,32.90
2023-02-22T22:41:28.344Z,34.20
2023-02-22T22:43:55.748Z,36.60
2023-02-22T22:46:23.073Z,37.90
2023-02-22T22:48:49.945Z,36.40
2023-02-22T22:51:22.061Z,34.40
2023-02-22T22:53:50.582Z,36.30
2023-02-22T22:56:20.505Z,35.10
2023-02-22T22:58:53.695Z,31.70
2023-02-22T23:01:34.257Z,31.10
2023-02-22T23:04:07.967Z,30.60
2023-02-22T23:06:46.391Z,30.10
2023-02-22T23:09:21.924Z,29.80
2023-02-22T23:11:53.383Z,29.40
2023-02-22T23:14:24.261Z,29.10
2023-02-22T23:16:55.371Z,30.20
2023-02-22T23:19:21.966Z,33.50
2023-02-22T23:21:49.788Z,29.40
2023-02-22T23:24:20.025Z,33.00
2023-02-22T23:26:49.826Z,32.70
2023-02-22T23:29:18.855Z,31.10
2023-02-22T23:31:48.467Z,34.20
2023-02-22T23:34:21.350Z,33.30
2023-02-22T23:36:49.344Z,31.30
2023-02-22T23:39:20.713Z,29.60
2023-02-22T23:42:00.174Z,28.90
2023-02-22T23:44:28.039Z,30.30
2023-02-22T23:46:56.823Z,30.60
2023-02-22T23:49:27.262Z,27.90
2023-02-22T23:51:54.216Z,28.80
2023-02-22T23:54:21.607Z,28.60
2023-02-22T23:57:02.392Z,26.70
2023-02-22T23:59:32.769Z,26.60
